Time;durP1;ratioP1;P1;durP2;ratioP2;P2;SDS_P1;SDS_P2;PMS_P1;PMS_P2;Temp;Humidity;BMP_temperature;BMP_pressure;BME280_temperature;BME280_humidity;BME280_pressure;Samples;Min_cycle;Max_cycle;Signal;HPM_P1;HPM_P2
2022/11/27 00:02:15;;;;;;;8.63;5.43;;;;;;;;;;5042459;28;20028;-84
2022/11/27 00:04:41;;;;;;;10.88;6.53;;;;;;;;;;5056940;28;20485;-84
2022/11/27 00:07:07;;;;;;;11.35;5.63;;;;;;;;;;5044133;28;20553;-83
2022/11/27 00:09:33;;;;;;;10.63;6.00;;;;;;;;;;5037607;28;20029;-83
2022/11/27 00:11:59;;;;;;;11.30;5.47;;;;;;;;;;5035877;28;20024;-84
2022/11/27 00:14:25;;;;;;;11.05;6.10;;;;;;;;;;5054705;28;20029;-84
2022/11/27 00:16:51;;;;;;;11.65;6.20;;;;;;;;;;5057467;28;20099;-84
2022/11/27 00:19:17;;;;;;;12.35;6.32;;;;;;;;;;5055965;28;20036;-84
2022/11/27 00:21:43;;;;;;;10.25;5.28;;;;;;;;;;5054824;28;20120;-84
2022/11/27 00:24:09;;;;;;;10.18;5.38;;;;;;;;;;5050441;28;20132;-84
2022/11/27 00:26:35;;;;;;;9.07;5.22;;;;;;;;;;5035743;28;20124;-83
2022/11/27 00:29:01;;;;;;;10.70;6.63;;;;;;;;;;5036176;28;20120;-84
2022/11/27 00:31:29;;;;;;;10.95;6.00;;;;;;;;;;5044438;28;20104;-84
2022/11/27 00:33:56;;;;;;;10.70;5.90;;;;;;;;;;5036559;28;20076;-84
2022/11/27 00:36:22;;;;;;;10.90;5.93;;;;;;;;;;5036329;28;20017;-84
2022/11/27 00:38:48;;;;;;;12.95;6.40;;;;;;;;;;5036699;28;20040;-85
2022/11/27 00:41:15;;;;;;;10.32;6.30;;;;;;;;;;5050048;28;20549;-85
2022/11/27 00:43:41;;;;;;;9.38;6.05;;;;;;;;;;5036958;28;20048;-85
2022/11/27 00:46:07;;;;;;;12.02;6.63;;;;;;;;;;5035861;28;20383;-84
2022/11/27 00:48:33;;;;;;;9.70;6.97;;;;;;;;;;5036959;28;20041;-84
2022/11/27 00:51:04;;;;;;;10.05;6.07;;;;;;;;;;5036168;28;20024;-84
2022/11/27 00:53:31;;;;;;;12.00;5.85;;;;;;;;;;5035190;28;20072;-84
2022/11/27 00:55:57;;;;;;;9.98;5.95;;;;;;;;;;5035516;28;20052;-84
2022/11/27 00:58:24;;;;;;;11.65;5.68;;;;;;;;;;5035932;28;20037;-84
2022/11/27 01:00:57;;;;;;;10.88;5.72;;;;;;;;;;5035824;28;20076;-84
2022/11/27 01:03:23;;;;;;;9.80;6.35;;;;;;;;;;5036772;28;20124;-84
2022/11/27 01:05:49;;;;;;;11.85;5.88;;;;;;;;;;5036202;28;20025;-84
2022/11/27 01:08:16;;;;;;;9.65;5.10;;;;;;;;;;5036318;28;20034;-84
2022/11/27 01:10:52;;;;;;;9.68;5.53;;;;;;;;;;5040098;28;20027;-84
2022/11/27 01:13:18;;;;;;;13.40;6.07;;;;;;;;;;5053037;28;20029;-84
2022/11/27 01:15:45;;;;;;;12.45;5.72;;;;;;;;;;5038837;28;20029;-84
2022/11/27 01:18:11;;;;;;;8.00;5.32;;;;;;;;;;5055509;28;20398;-84
2022/11/27 01:20:38;;;;;;;11.65;5.35;;;;;;;;;;5049333;28;20087;-84
2022/11/27 01:23:04;;;;;;;9.65;5.28;;;;;;;;;;5048891;28;20036;-84
2022/11/27 01:25:30;;;;;;;10.98;5.78;;;;;;;;;;5055310;28;20052;-84
2022/11/27 01:27:57;;;;;;;8.88;5.65;;;;;;;;;;5055618;28;20463;-84
2022/11/27 01:30:23;;;;;;;12.18;6.15;;;;;;;;;;5038077;28;20028;-84
2022/11/27 01:32:49;;;;;;;8.63;5.28;;;;;;;;;;5059758;28;20035;-84
2022/11/27 01:35:15;;;;;;;13.55;6.20;;;;;;;;;;5034492;28;20373;-84
2022/11/27 01:37:41;;;;;;;11.45;6.07;;;;;;;;;;5035036;28;20037;-84
2022/11/27 01:40:07;;;;;;;12.43;5.72;;;;;;;;;;5035492;28;20124;-84
2022/11/27 01:42:33;;;;;;;9.85;5.53;;;;;;;;;;5054391;28;20099;-84
2022/11/27 01:44:59;;;;;;;10.85;6.43;;;;;;;;;;5034293;28;20555;-84
2022/11/27 01:47:33;;;;;;;9.27;6.22;;;;;;;;;;5035182;28;20036;-84
2022/11/27 01:50:08;;;;;;;10.95;6.18;;;;;;;;;;5035914;28;20476;-84
2022/11/27 01:52:36;;;;;;;10.65;5.85;;;;;;;;;;5038824;28;20029;-84
2022/11/27 01:55:02;;;;;;;11.52;6.35;;;;;;;;;;5034925;28;20402;-85
2022/11/27 01:57:29;;;;;;;10.45;6.20;;;;;;;;;;5034758;28;20037;-84
2022/11/27 01:59:56;;;;;;;10.15;6.18;;;;;;;;;;5054259;28;20116;-84
2022/11/27 02:02:22;;;;;;;11.25;6.50;;;;;;;;;;5043645;28;20029;-84
2022/11/27 02:04:48;;;;;;;11.73;6.32;;;;;;;;;;5053722;28;20136;-84
2022/11/27 02:07:14;;;;;;;10.85;5.75;;;;;;;;;;5045418;28;20029;-84
2022/11/27 02:09:40;;;;;;;11.55;6.63;;;;;;;;;;5037234;28;20022;-85
2022/11/27 02:12:23;;;;;;;12.05;6.97;;;;;;;;;;5035363;28;20033;-84
2022/11/27 02:14:56;;;;;;;12.52;6.53;;;;;;;;;;5043607;28;20511;-84
2022/11/27 02:17:37;;;;;;;11.48;7.03;;;;;;;;;;5035311;28;20104;-84
2022/11/27 02:20:12;;;;;;;10.13;6.30;;;;;;;;;;5035547;28;20037;-84
2022/11/27 02:22:38;;;;;;;12.60;7.38;;;;;;;;;;5041100;28;20028;-84
2022/11/27 02:25:04;;;;;;;11.55;6.97;;;;;;;;;;5052830;28;20017;-84
2022/11/27 02:27:30;;;;;;;11.98;7.00;;;;;;;;;;5050415;28;20033;-84
2022/11/27 02:29:59;;;;;;;12.35;6.75;;;;;;;;;;5051291;28;20025;-84
2022/11/27 02:32:27;;;;;;;13.57;6.68;;;;;;;;;;5059144;28;20364;-84
2022/11/27 02:35:08;;;;;;;12.55;6.95;;;;;;;;;;5043676;28;20028;-84
2022/11/27 02:37:37;;;;;;;13.95;6.82;;;;;;;;;;5037013;28;20399;-84
2022/11/27 02:40:12;;;;;;;14.13;6.45;;;;;;;;;;5048725;28;20037;-84
2022/11/27 02:42:41;;;;;;;12.00;6.45;;;;;;;;;;5037191;28;20403;-84
2022/11/27 02:45:12;;;;;;;10.73;6.30;;;;;;;;;;5038294;28;20088;-84
2022/11/27 02:47:39;;;;;;;11.15;6.47;;;;;;;;;;5051582;28;20039;-84
2022/11/27 02:50:08;;;;;;;12.60;7.38;;;;;;;;;;5057196;28;20017;-84
2022/11/27 02:52:34;;;;;;;12.02;6.28;;;;;;;;;;5048876;28;20475;-84
2022/11/27 02:55:02;;;;;;;10.10;6.32;;;;;;;;;;5055985;28;20025;-84
2022/11/27 02:57:29;;;;;;;11.23;5.85;;;;;;;;;;5037291;28;20083;-84
2022/11/27 02:59:56;;;;;;;12.00;6.90;;;;;;;;;;5038312;28;20085;-84
2022/11/27 03:02:42;;;;;;;10.15;6.25;;;;;;;;;;5040239;28;20017;-84
2022/11/27 03:05:12;;;;;;;13.02;6.55;;;;;;;;;;5051654;28;20033;-84
2022/11/27 03:08:07;;;;;;;12.98;7.38;;;;;;;;;;5047642;28;20042;-84
2022/11/27 03:10:36;;;;;;;10.88;6.03;;;;;;;;;;5021601;28;20033;-84
2022/11/27 03:13:02;;;;;;;11.80;6.45;;;;;;;;;;5047355;28;20576;-83
2022/11/27 03:15:31;;;;;;;12.35;6.53;;;;;;;;;;5057139;28;20667;-82
2022/11/27 03:18:05;;;;;;;11.50;6.18;;;;;;;;;;5050880;28;20028;-83
2022/11/27 03:20:35;;;;;;;10.88;6.30;;;;;;;;;;5049117;28;20487;-83
2022/11/27 03:23:01;;;;;;;12.90;6.80;;;;;;;;;;5045706;28;20033;-83
2022/11/27 03:25:28;;;;;;;12.98;7.00;;;;;;;;;;5048859;28;20123;-83
2022/11/27 03:28:02;;;;;;;10.82;5.80;;;;;;;;;;5050267;28;20037;-83
2022/11/27 03:30:28;;;;;;;11.60;6.60;;;;;;;;;;5051844;28;20024;-83
2022/11/27 03:32:54;;;;;;;11.10;6.68;;;;;;;;;;5078873;28;20025;-83
2022/11/27 03:35:22;;;;;;;11.20;6.15;;;;;;;;;;5060248;28;20075;-83
2022/11/27 03:37:49;;;;;;;10.88;6.47;;;;;;;;;;5054493;28;20029;-83
2022/11/27 03:40:16;;;;;;;11.23;7.30;;;;;;;;;;5061069;28;20456;-83
2022/11/27 03:43:00;;;;;;;10.80;6.57;;;;;;;;;;5057870;28;20032;-83
2022/11/27 03:45:26;;;;;;;12.23;7.00;;;;;;;;;;5043127;28;20049;-83
2022/11/27 03:48:08;;;;;;;13.38;8.13;;;;;;;;;;5050085;28;20033;-83
2022/11/27 03:51:00;;;;;;;11.65;7.32;;;;;;;;;;5037044;28;20030;-83
2022/11/27 03:53:29;;;;;;;10.82;7.00;;;;;;;;;;5043755;28;20035;-83
2022/11/27 03:56:28;;;;;;;14.77;7.28;;;;;;;;;;5054916;28;20060;-83
2022/11/27 03:59:07;;;;;;;11.73;6.80;;;;;;;;;;5014097;28;20051;-83
2022/11/27 04:01:33;;;;;;;11.35;6.55;;;;;;;;;;5056359;28;20095;-83
2022/11/27 04:03:59;;;;;;;14.10;7.75;;;;;;;;;;5050869;28;20033;-83
2022/11/27 04:06:25;;;;;;;12.48;7.20;;;;;;;;;;5056142;28;20525;-83
2022/11/27 04:08:51;;;;;;;12.05;7.55;;;;;;;;;;5043873;28;20043;-83
2022/11/27 04:11:17;;;;;;;11.88;6.95;;;;;;;;;;5049986;28;20441;-83
2022/11/27 04:13:43;;;;;;;10.77;6.45;;;;;;;;;;5053281;28;20483;-83
2022/11/27 04:16:09;;;;;;;13.15;7.40;;;;;;;;;;5039891;28;20156;-83
2022/11/27 04:18:35;;;;;;;11.43;6.97;;;;;;;;;;5058238;28;20021;-83
2022/11/27 04:21:01;;;;;;;13.07;7.05;;;;;;;;;;5051128;28;20065;-83
2022/11/27 04:23:27;;;;;;;15.30;7.70;;;;;;;;;;5044282;28;20017;-83
2022/11/27 04:25:53;;;;;;;12.18;7.43;;;;;;;;;;5056246;28;20017;-83
2022/11/27 04:28:19;;;;;;;13.77;6.97;;;;;;;;;;5048990;28;20033;-83
2022/11/27 04:30:45;;;;;;;13.88;7.10;;;;;;;;;;5047186;28;20029;-83
2022/11/27 04:33:11;;;;;;;13.75;7.05;;;;;;;;;;5039780;28;20025;-83
2022/11/27 04:35:37;;;;;;;16.13;7.50;;;;;;;;;;5055544;28;20479;-83
2022/11/27 04:38:03;;;;;;;13.40;6.93;;;;;;;;;;5040310;28;20108;-83
2022/11/27 04:40:29;;;;;;;14.77;6.72;;;;;;;;;;5047872;28;20476;-83
2022/11/27 04:42:55;;;;;;;13.50;7.85;;;;;;;;;;5037012;28;20091;-83
2022/11/27 04:45:21;;;;;;;13.50;7.78;;;;;;;;;;5035994;28;20518;-83
2022/11/27 04:47:47;;;;;;;12.35;6.85;;;;;;;;;;5035772;28;20061;-83
2022/11/27 04:50:13;;;;;;;15.43;7.35;;;;;;;;;;5042592;28;20051;-83
2022/11/27 04:52:39;;;;;;;12.57;7.05;;;;;;;;;;5054676;28;20032;-83
2022/11/27 04:55:05;;;;;;;11.80;7.18;;;;;;;;;;5043479;28;20104;-83
2022/11/27 04:57:31;;;;;;;11.55;6.63;;;;;;;;;;5051551;28;20033;-84
2022/11/27 04:59:57;;;;;;;15.82;8.13;;;;;;;;;;5040762;28;20025;-83
2022/11/27 05:02:23;;;;;;;13.18;7.78;;;;;;;;;;5036035;28;20071;-83
2022/11/27 05:04:49;;;;;;;13.85;7.60;;;;;;;;;;5035991;28;20124;-83
2022/11/27 05:07:16;;;;;;;14.75;7.72;;;;;;;;;;5036330;28;20091;-83
2022/11/27 05:09:42;;;;;;;15.27;7.47;;;;;;;;;;5035439;28;20057;-83
2022/11/27 05:12:08;;;;;;;14.82;7.63;;;;;;;;;;5036969;28;20029;-83
2022/11/27 05:14:34;;;;;;;13.77;7.90;;;;;;;;;;5053107;28;20427;-83
2022/11/27 05:17:01;;;;;;;14.38;8.10;;;;;;;;;;5054903;28;20024;-83
2022/11/27 05:19:28;;;;;;;15.48;8.18;;;;;;;;;;5039109;28;20029;-83
2022/11/27 05:21:54;;;;;;;13.85;8.82;;;;;;;;;;5039221;28;20116;-83
2022/11/27 05:24:21;;;;;;;12.15;7.40;;;;;;;;;;5054821;28;20086;-83
2022/11/27 05:26:47;;;;;;;12.43;7.95;;;;;;;;;;5051092;28;20078;-83
2022/11/27 05:29:14;;;;;;;14.18;7.68;;;;;;;;;;5056519;28;20035;-83
2022/11/27 05:31:40;;;;;;;15.10;8.13;;;;;;;;;;5066556;28;20025;-83
2022/11/27 05:34:06;;;;;;;13.48;7.50;;;;;;;;;;5040401;28;20060;-83
2022/11/27 05:36:32;;;;;;;16.25;8.95;;;;;;;;;;5036069;28;20027;-83
2022/11/27 05:39:03;;;;;;;13.48;7.75;;;;;;;;;;5035660;28;20094;-84
2022/11/27 05:41:29;;;;;;;13.38;7.53;;;;;;;;;;5055747;28;20021;-83
2022/11/27 05:43:55;;;;;;;11.98;7.93;;;;;;;;;;5045938;28;20017;-83
2022/11/27 05:46:22;;;;;;;12.77;7.15;;;;;;;;;;5054999;28;20044;-83
2022/11/27 05:48:49;;;;;;;15.90;8.50;;;;;;;;;;5048870;28;20025;-83
2022/11/27 05:51:15;;;;;;;14.18;8.18;;;;;;;;;;5045478;28;20029;-83
2022/11/27 05:53:41;;;;;;;14.05;8.27;;;;;;;;;;5040199;28;20349;-83
2022/11/27 05:56:08;;;;;;;13.90;7.93;;;;;;;;;;5041293;28;20024;-83
2022/11/27 05:58:35;;;;;;;14.88;9.25;;;;;;;;;;5035993;28;20064;-83
2022/11/27 06:01:01;;;;;;;15.30;8.80;;;;;;;;;;5037157;28;20079;-83
2022/11/27 06:03:27;;;;;;;14.90;8.00;;;;;;;;;;5034833;28;20029;-83
2022/11/27 06:05:53;;;;;;;13.50;8.52;;;;;;;;;;5039657;28;20029;-83
2022/11/27 06:08:20;;;;;;;14.90;8.43;;;;;;;;;;5039875;28;20033;-83
2022/11/27 06:10:47;;;;;;;18.35;10.25;;;;;;;;;;5035525;28;20037;-83
2022/11/27 06:13:13;;;;;;;21.52;11.27;;;;;;;;;;5038865;28;20514;-83
2022/11/27 06:15:39;;;;;;;17.92;9.27;;;;;;;;;;5036263;28;20116;-83
2022/11/27 06:18:06;;;;;;;18.92;9.52;;;;;;;;;;5036532;28;20113;-83
2022/11/27 06:20:32;;;;;;;16.92;9.05;;;;;;;;;;5035928;28;20087;-83
2022/11/27 06:22:58;;;;;;;19.02;10.68;;;;;;;;;;5036494;28;20025;-83
2022/11/27 06:25:25;;;;;;;16.83;10.18;;;;;;;;;;5038631;28;20029;-84
2022/11/27 06:27:52;;;;;;;21.27;10.73;;;;;;;;;;5038744;28;20035;-84
2022/11/27 06:30:18;;;;;;;19.75;11.48;;;;;;;;;;5042659;28;20112;-83
2022/11/27 06:32:44;;;;;;;22.55;12.65;;;;;;;;;;5055435;28;20028;-83
2022/11/27 06:35:10;;;;;;;21.52;10.60;;;;;;;;;;5048308;28;20017;-83
2022/11/27 06:37:36;;;;;;;22.38;10.63;;;;;;;;;;5037184;28;20117;-83
2022/11/27 06:40:03;;;;;;;21.77;11.82;;;;;;;;;;5049722;28;20025;-83
2022/11/27 06:42:29;;;;;;;21.73;11.90;;;;;;;;;;5040736;28;20124;-83
2022/11/27 06:44:55;;;;;;;22.42;11.65;;;;;;;;;;5053892;28;20088;-84
2022/11/27 06:47:21;;;;;;;19.30;10.52;;;;;;;;;;5048146;28;20044;-83
2022/11/27 06:49:47;;;;;;;20.67;11.13;;;;;;;;;;5042095;28;20048;-84
2022/11/27 06:52:13;;;;;;;21.50;11.68;;;;;;;;;;5045109;28;20037;-83
2022/11/27 06:54:39;;;;;;;20.73;11.38;;;;;;;;;;5042878;28;20045;-83
2022/11/27 06:57:05;;;;;;;20.33;11.32;;;;;;;;;;5040249;28;20043;-84
2022/11/27 06:59:31;;;;;;;22.15;12.52;;;;;;;;;;5048046;28;20022;-84
2022/11/27 07:01:57;;;;;;;20.13;11.45;;;;;;;;;;5044306;28;20502;-83
2022/11/27 07:04:23;;;;;;;23.33;12.02;;;;;;;;;;5040244;28;20030;-83
2022/11/27 07:06:50;;;;;;;19.63;11.85;;;;;;;;;;5043407;28;20036;-83
2022/11/27 07:09:15;;;;;;;18.48;11.25;;;;;;;;;;5054360;28;20514;-83
2022/11/27 07:11:41;;;;;;;20.40;10.95;;;;;;;;;;5053042;28;20022;-83
2022/11/27 07:14:07;;;;;;;20.77;11.98;;;;;;;;;;5046230;28;20116;-83
2022/11/27 07:16:34;;;;;;;18.95;11.45;;;;;;;;;;5048484;28;20479;-83
2022/11/27 07:19:02;;;;;;;23.33;11.73;;;;;;;;;;5061976;28;20047;-83
2022/11/27 07:21:28;;;;;;;21.33;12.30;;;;;;;;;;5046934;28;20028;-83
2022/11/27 07:23:57;;;;;;;24.02;12.68;;;;;;;;;;5042666;28;20056;-83
2022/11/27 07:26:25;;;;;;;24.33;12.70;;;;;;;;;;5044812;28;20016;-83
2022/11/27 07:28:51;;;;;;;24.95;12.02;;;;;;;;;;5056193;28;20040;-84
2022/11/27 07:31:18;;;;;;;23.80;13.35;;;;;;;;;;5061322;28;20021;-83
2022/11/27 07:33:44;;;;;;;24.05;12.73;;;;;;;;;;5039893;28;20228;-83
2022/11/27 07:36:13;;;;;;;23.00;13.32;;;;;;;;;;5051578;28;20031;-83
2022/11/27 07:38:39;;;;;;;22.85;12.82;;;;;;;;;;5041008;28;20502;-83
2022/11/27 07:41:05;;;;;;;21.70;12.35;;;;;;;;;;5039818;28;20052;-83
2022/11/27 07:43:32;;;;;;;24.52;11.73;;;;;;;;;;5057484;28;20029;-83
2022/11/27 07:45:58;;;;;;;23.75;12.88;;;;;;;;;;5043286;28;20053;-83
2022/11/27 07:48:24;;;;;;;20.35;11.98;;;;;;;;;;5054931;28;20033;-84
2022/11/27 07:50:50;;;;;;;23.38;12.00;;;;;;;;;;5053620;28;20460;-84
2022/11/27 07:53:17;;;;;;;22.02;11.30;;;;;;;;;;5053736;28;20021;-84
2022/11/27 07:55:43;;;;;;;23.15;12.38;;;;;;;;;;5056441;28;20031;-84
2022/11/27 07:58:09;;;;;;;20.75;10.57;;;;;;;;;;5056663;28;20115;-84
2022/11/27 08:00:35;;;;;;;19.10;11.70;;;;;;;;;;5041660;28;20041;-84
2022/11/27 08:03:01;;;;;;;18.98;10.07;;;;;;;;;;5044998;28;20025;-84
2022/11/27 08:05:28;;;;;;;18.58;10.52;;;;;;;;;;5055244;28;20017;-84
2022/11/27 08:07:54;;;;;;;20.05;10.20;;;;;;;;;;5045792;28;20028;-84
2022/11/27 08:10:20;;;;;;;16.10;8.95;;;;;;;;;;5050543;28;20025;-84
2022/11/27 08:12:46;;;;;;;15.32;9.25;;;;;;;;;;5050027;28;20100;-84
2022/11/27 08:15:12;;;;;;;17.48;9.70;;;;;;;;;;5045039;28;20047;-84
2022/11/27 08:17:38;;;;;;;16.45;8.55;;;;;;;;;;5049201;28;20483;-84
2022/11/27 08:20:05;;;;;;;15.77;8.98;;;;;;;;;;5053034;28;20037;-84
2022/11/27 08:22:31;;;;;;;20.13;9.65;;;;;;;;;;5057995;28;20060;-85
2022/11/27 08:24:57;;;;;;;20.38;9.05;;;;;;;;;;5042482;28;20083;-85
2022/11/27 08:27:23;;;;;;;17.13;9.68;;;;;;;;;;5042498;28;20043;-85
2022/11/27 08:29:49;;;;;;;18.13;9.73;;;;;;;;;;5052142;28;20029;-85
2022/11/27 08:32:15;;;;;;;20.42;10.52;;;;;;;;;;5046788;28;20054;-85
2022/11/27 08:34:41;;;;;;;19.45;10.48;;;;;;;;;;5055662;28;20029;-85
2022/11/27 08:37:07;;;;;;;18.67;10.82;;;;;;;;;;5059280;28;20041;-85
2022/11/27 08:39:33;;;;;;;16.73;10.50;;;;;;;;;;5057666;28;20492;-85
2022/11/27 08:41:59;;;;;;;21.45;11.02;;;;;;;;;;5053555;28;20059;-86
2022/11/27 08:44:25;;;;;;;20.77;11.05;;;;;;;;;;5044943;28;20037;-85
2022/11/27 08:46:51;;;;;;;16.35;10.07;;;;;;;;;;5046152;28;20037;-84
2022/11/27 08:49:17;;;;;;;15.90;9.23;;;;;;;;;;5043821;28;20568;-84
2022/11/27 08:51:44;;;;;;;17.08;9.38;;;;;;;;;;5054324;28;20096;-85
2022/11/27 08:54:10;;;;;;;19.55;10.70;;;;;;;;;;5048480;28;20486;-85
2022/11/27 08:56:36;;;;;;;16.73;9.32;;;;;;;;;;5040862;28;20018;-85
2022/11/27 08:59:02;;;;;;;16.80;9.45;;;;;;;;;;5052151;28;20029;-84
2022/11/27 09:01:29;;;;;;;17.30;9.07;;;;;;;;;;5051430;28;20098;-85
2022/11/27 09:03:56;;;;;;;14.38;8.63;;;;;;;;;;5049491;28;20030;-85
2022/11/27 09:06:23;;;;;;;17.02;9.00;;;;;;;;;;5048654;28;20439;-85
2022/11/27 09:08:49;;;;;;;14.07;7.63;;;;;;;;;;5046726;28;20108;-85
2022/11/27 09:11:18;;;;;;;13.68;7.13;;;;;;;;;;5048549;28;20017;-85
2022/11/27 09:13:44;;;;;;;15.75;8.35;;;;;;;;;;5041120;28;20369;-85
2022/11/27 09:16:12;;;;;;;13.90;7.53;;;;;;;;;;5057090;28;20025;-86
2022/11/27 09:18:38;;;;;;;12.63;7.88;;;;;;;;;;5058000;28;20024;-85
2022/11/27 09:21:06;;;;;;;13.40;7.82;;;;;;;;;;5065408;28;20025;-85
2022/11/27 09:23:32;;;;;;;13.48;7.50;;;;;;;;;;5052865;28;20063;-85
2022/11/27 09:25:59;;;;;;;16.00;7.97;;;;;;;;;;5053105;28;20029;-86
2022/11/27 09:28:25;;;;;;;12.05;7.50;;;;;;;;;;5052991;28;20029;-85
2022/11/27 09:30:55;;;;;;;15.35;7.40;;;;;;;;;;5049157;28;20045;-85
2022/11/27 09:33:21;;;;;;;13.90;7.55;;;;;;;;;;5049454;28;20017;-85
2022/11/27 09:35:47;;;;;;;13.05;6.57;;;;;;;;;;5058613;28;20040;-85
2022/11/27 09:38:13;;;;;;;10.80;6.38;;;;;;;;;;5045398;28;20029;-86
2022/11/27 09:40:43;;;;;;;12.48;7.35;;;;;;;;;;5043422;28;20064;-85
2022/11/27 09:43:11;;;;;;;14.35;6.95;;;;;;;;;;5054403;28;20048;-86
2022/11/27 09:45:42;;;;;;;15.02;7.70;;;;;;;;;;5051445;28;20041;-85
2022/11/27 09:48:12;;;;;;;12.65;6.90;;;;;;;;;;5052980;28;20025;-85
2022/11/27 09:50:41;;;;;;;11.68;6.57;;;;;;;;;;5056612;28;20056;-86
2022/11/27 09:53:23;;;;;;;12.27;6.63;;;;;;;;;;5044254;28;20409;-85
2022/11/27 09:55:51;;;;;;;10.80;6.63;;;;;;;;;;5047786;28;20021;-85
2022/11/27 09:58:19;;;;;;;17.13;7.65;;;;;;;;;;5044725;28;20040;-86
2022/11/27 10:00:46;;;;;;;10.13;5.80;;;;;;;;;;5049695;28;20395;-85
2022/11/27 10:03:13;;;;;;;12.23;7.88;;;;;;;;;;5057599;28;20029;-85
2022/11/27 10:05:47;;;;;;;11.90;6.45;;;;;;;;;;5042726;28;20450;-86
2022/11/27 10:08:23;;;;;;;14.38;7.13;;;;;;;;;;5057561;28;20595;-85
2022/11/27 10:10:55;;;;;;;12.05;6.53;;;;;;;;;;5047193;28;20033;-85
2022/11/27 10:13:37;;;;;;;14.13;7.22;;;;;;;;;;5042024;28;20017;-85
2022/11/27 10:16:03;;;;;;;10.63;5.97;;;;;;;;;;5050615;28;20460;-84
2022/11/27 10:18:38;;;;;;;10.52;5.43;;;;;;;;;;5035329;28;20116;-84
2022/11/27 10:21:12;;;;;;;9.40;5.03;;;;;;;;;;5039983;28;20098;-84
2022/11/27 10:23:42;;;;;;;9.68;5.95;;;;;;;;;;5052535;28;20024;-84
2022/11/27 10:26:15;;;;;;;13.52;5.07;;;;;;;;;;5044362;28;20082;-84
2022/11/27 10:28:46;;;;;;;16.45;6.07;;;;;;;;;;5035031;28;20030;-84
2022/11/27 10:31:15;;;;;;;12.45;6.13;;;;;;;;;;5038326;28;20089;-85
2022/11/27 10:33:44;;;;;;;10.80;5.75;;;;;;;;;;5039347;28;20072;-86
2022/11/27 10:36:14;;;;;;;12.02;6.03;;;;;;;;;;5047638;28;20082;-83
2022/11/27 10:38:40;;;;;;;10.73;6.63;;;;;;;;;;5053632;28;20108;-84
2022/11/27 10:41:28;;;;;;;10.93;5.72;;;;;;;;;;5045940;28;20025;-83
2022/11/27 10:43:55;;;;;;;12.88;5.65;;;;;;;;;;5051730;28;20029;-83
2022/11/27 10:46:24;;;;;;;9.18;5.32;;;;;;;;;;5035681;28;20046;-84
2022/11/27 10:48:50;;;;;;;10.32;6.15;;;;;;;;;;5043229;28;20025;-84
2022/11/27 10:51:28;;;;;;;10.15;5.40;;;;;;;;;;5054843;28;20049;-84
2022/11/27 10:53:55;;;;;;;10.77;6.38;;;;;;;;;;5053558;28;20033;-84
2022/11/27 10:56:31;;;;;;;10.27;6.07;;;;;;;;;;5053361;28;20029;-84
2022/11/27 10:59:03;;;;;;;10.70;5.95;;;;;;;;;;5058545;28;20055;-85
2022/11/27 11:01:41;;;;;;;7.88;5.30;;;;;;;;;;5056982;28;20120;-85
2022/11/27 11:04:08;;;;;;;8.93;5.30;;;;;;;;;;5050936;28;20034;-85
2022/11/27 11:06:52;;;;;;;10.73;6.38;;;;;;;;;;5052723;28;20055;-84
2022/11/27 11:09:22;;;;;;;9.75;5.90;;;;;;;;;;5050312;28;20094;-85
2022/11/27 11:11:48;;;;;;;8.70;5.57;;;;;;;;;;5049641;28;20049;-85
2022/11/27 11:14:15;;;;;;;9.82;6.18;;;;;;;;;;5058021;28;20028;-85
2022/11/27 11:16:42;;;;;;;8.57;5.68;;;;;;;;;;5052128;28;20021;-85
2022/11/27 11:19:28;;;;;;;8.90;6.10;;;;;;;;;;5050169;28;20100;-85
2022/11/27 11:21:54;;;;;;;9.55;6.25;;;;;;;;;;5048051;28;20091;-84
2022/11/27 11:24:20;;;;;;;8.90;5.60;;;;;;;;;;5053658;28;20112;-84
2022/11/27 11:26:48;;;;;;;8.52;6.07;;;;;;;;;;5062187;28;20048;-85
2022/11/27 11:29:25;;;;;;;10.10;6.60;;;;;;;;;;5053260;28;20108;-84
2022/11/27 11:31:53;;;;;;;11.25;6.03;;;;;;;;;;5057917;28;20387;-84
2022/11/27 11:34:19;;;;;;;9.65;5.80;;;;;;;;;;5050903;28;20356;-83
2022/11/27 11:36:59;;;;;;;10.50;6.05;;;;;;;;;;5055524;28;20032;-83
2022/11/27 11:39:27;;;;;;;10.13;6.20;;;;;;;;;;5052285;28;20051;-84
2022/11/27 11:41:53;;;;;;;8.55;5.72;;;;;;;;;;5054592;28;20025;-81
2022/11/27 11:44:25;;;;;;;12.10;5.90;;;;;;;;;;5043925;28;20051;-82
2022/11/27 11:46:52;;;;;;;;;;;;;;;;;;5046662;28;20391;-81
2022/11/27 11:49:21;;;;;;;8.27;5.45;;;;;;;;;;5043569;28;19945;-81
2022/11/27 11:51:59;;;;;;;9.55;5.53;;;;;;;;;;5046476;28;20021;-81
2022/11/27 11:54:25;;;;;;;8.75;5.68;;;;;;;;;;5054610;28;20033;-82
2022/11/27 11:56:52;;;;;;;10.10;6.40;;;;;;;;;;5056898;28;20033;-82
2022/11/27 11:59:27;;;;;;;10.95;6.10;;;;;;;;;;5050706;28;20033;-82
2022/11/27 12:02:05;;;;;;;10.80;6.18;;;;;;;;;;5052015;28;20025;-81
2022/11/27 12:04:48;;;;;;;10.85;5.30;;;;;;;;;;5059746;28;20025;-82
2022/11/27 12:07:17;;;;;;;9.93;5.38;;;;;;;;;;5052257;28;20034;-82
2022/11/27 12:09:43;;;;;;;9.15;6.03;;;;;;;;;;5053551;28;20036;-82
2022/11/27 12:12:12;;;;;;;7.38;5.15;;;;;;;;;;5056507;28;20025;-81
2022/11/27 12:14:41;;;;;;;11.63;5.88;;;;;;;;;;5043199;28;20017;-81
2022/11/27 12:17:18;;;;;;;11.05;5.78;;;;;;;;;;5051572;28;20025;-81
2022/11/27 12:19:58;;;;;;;9.45;5.97;;;;;;;;;;5043748;28;20025;-81
2022/11/27 12:22:27;;;;;;;11.38;6.50;;;;;;;;;;5051579;28;20021;-82
2022/11/27 12:25:10;;;;;;;8.73;5.28;;;;;;;;;;5040881;28;20032;-81
2022/11/27 12:27:53;;;;;;;11.15;5.88;;;;;;;;;;5042246;28;20079;-81
2022/11/27 12:30:25;;;;;;;9.63;5.82;;;;;;;;;;5054631;28;20040;-81
2022/11/27 12:32:54;;;;;;;8.65;5.43;;;;;;;;;;5053697;28;20593;-81
2022/11/27 12:35:34;;;;;;;8.23;5.40;;;;;;;;;;5050899;28;20498;-81
2022/11/27 12:38:05;;;;;;;9.48;5.10;;;;;;;;;;5063542;28;20020;-81
2022/11/27 12:40:35;;;;;;;8.25;4.47;;;;;;;;;;5058428;28;20033;-82
2022/11/27 12:43:23;;;;;;;7.95;4.93;;;;;;;;;;5042214;28;20068;-81
2022/11/27 12:45:53;;;;;;;9.75;5.57;;;;;;;;;;5040232;28;20045;-82
2022/11/27 12:48:23;;;;;;;9.35;4.90;;;;;;;;;;5041262;28;20029;-82
2022/11/27 12:50:51;;;;;;;8.32;4.90;;;;;;;;;;5058337;28;20048;-82
2022/11/27 12:53:17;;;;;;;8.10;5.50;;;;;;;;;;5059708;28;20025;-82
2022/11/27 12:55:46;;;;;;;7.70;4.80;;;;;;;;;;5059132;28;20028;-82
2022/11/27 12:58:23;;;;;;;9.43;4.72;;;;;;;;;;5054522;28;20800;-82
2022/11/27 13:00:50;;;;;;;9.23;5.10;;;;;;;;;;5058759;28;20510;-81
2022/11/27 13:03:25;;;;;;;8.07;4.60;;;;;;;;;;5054871;28;20043;-82
2022/11/27 13:05:55;;;;;;;8.57;4.38;;;;;;;;;;5045187;28;20030;-82
2022/11/27 13:08:51;;;;;;;8.75;4.13;;;;;;;;;;5041353;28;20061;-82
2022/11/27 13:11:19;;;;;;;7.05;3.92;;;;;;;;;;5034491;28;20037;-81
2022/11/27 13:13:53;;;;;;;9.70;5.10;;;;;;;;;;5045000;28;20029;-82
2022/11/27 13:16:27;;;;;;;8.60;4.90;;;;;;;;;;5050002;28;20033;-79
2022/11/27 13:19:04;;;;;;;10.95;6.00;;;;;;;;;;5056650;28;20021;-82
2022/11/27 13:21:32;;;;;;;8.95;5.20;;;;;;;;;;5057303;28;20029;-82
2022/11/27 13:24:01;;;;;;;8.73;5.05;;;;;;;;;;5042536;28;20029;-82
2022/11/27 13:26:30;;;;;;;7.78;4.88;;;;;;;;;;5047670;28;20095;-81
2022/11/27 13:28:58;;;;;;;7.93;4.20;;;;;;;;;;5041431;28;20108;-81
2022/11/27 13:31:26;;;;;;;8.05;4.68;;;;;;;;;;5057651;28;20025;-81
2022/11/27 13:33:57;;;;;;;9.20;5.00;;;;;;;;;;5056060;28;20021;-81
2022/11/27 13:36:25;;;;;;;9.80;4.75;;;;;;;;;;5043869;28;20294;-81
2022/11/27 13:38:58;;;;;;;8.23;4.82;;;;;;;;;;5043079;28;20029;-82
2022/11/27 13:41:31;;;;;;;8.45;5.15;;;;;;;;;;5044856;28;20167;-81
2022/11/27 13:43:57;;;;;;;8.45;5.20;;;;;;;;;;5061657;28;20032;-81
2022/11/27 13:46:24;;;;;;;10.40;5.63;;;;;;;;;;5078787;28;20452;-81
2022/11/27 13:48:51;;;;;;;8.95;5.47;;;;;;;;;;5059787;28;20076;-81
2022/11/27 13:51:28;;;;;;;7.90;5.18;;;;;;;;;;5054354;28;20025;-81
2022/11/27 13:54:06;;;;;;;11.13;5.65;;;;;;;;;;5057108;28;20112;-81
2022/11/27 13:56:32;;;;;;;7.90;5.40;;;;;;;;;;5056748;28;20029;-83
2022/11/27 13:58:58;;;;;;;8.32;5.07;;;;;;;;;;5057527;28;20071;-82
2022/11/27 14:01:25;;;;;;;10.70;5.60;;;;;;;;;;5058197;28;20036;-81
2022/11/27 14:03:51;;;;;;;10.30;6.10;;;;;;;;;;5042905;28;20034;-81
2022/11/27 14:06:23;;;;;;;8.70;5.53;;;;;;;;;;5043613;28;20036;-81
2022/11/27 14:09:08;;;;;;;9.40;5.60;;;;;;;;;;5037406;28;20033;-81
2022/11/27 14:12:00;;;;;;;9.80;5.38;;;;;;;;;;5038616;28;20030;-81
2022/11/27 14:14:27;;;;;;;10.13;5.57;;;;;;;;;;5036372;28;20048;-81
2022/11/27 14:16:58;;;;;;;9.77;5.22;;;;;;;;;;5048500;28;20286;-81
2022/11/27 14:19:24;;;;;;;10.32;5.78;;;;;;;;;;5056420;28;20055;-81
2022/11/27 14:21:50;;;;;;;10.20;5.43;;;;;;;;;;5051739;28;20041;-81
2022/11/27 14:24:34;;;;;;;10.02;6.28;;;;;;;;;;5055824;28;20022;-81
2022/11/27 14:27:00;;;;;;;11.40;5.47;;;;;;;;;;5038827;28;20478;-81
2022/11/27 14:29:30;;;;;;;12.02;6.28;;;;;;;;;;5037565;28;20030;-81
2022/11/27 14:31:57;;;;;;;10.02;5.88;;;;;;;;;;5052950;28;20403;-81
2022/11/27 14:34:27;;;;;;;10.30;5.82;;;;;;;;;;5049517;28;20076;-81
2022/11/27 14:36:53;;;;;;;11.30;6.40;;;;;;;;;;5052475;28;20048;-81
2022/11/27 14:39:23;;;;;;;11.60;5.88;;;;;;;;;;5054318;28;20490;-80
2022/11/27 14:42:05;;;;;;;11.88;6.07;;;;;;;;;;5046114;28;20033;-80